Time;durP1;ratioP1;P1;durP2;ratioP2;P2;SDS_P1;SDS_P2;PMS_P1;PMS_P2;Temp;Humidity;BMP_temperature;BMP_pressure;BME280_temperature;BME280_humidity;BME280_pressure;Samples;Min_cycle;Max_cycle;Signal;HPM_P1;HPM_P2
2022/08/27 00:01:15;;;;;;;20.50;8.43;;;19.20;76.80;;;;;;4162236;28;20128;-88
2022/08/27 00:03:16;;;;;;;21.17;8.30;;;19.20;76.90;;;;;;4149082;28;20045;-88
2022/08/27 00:05:18;;;;;;;19.77;8.40;;;19.20;76.90;;;;;;4153338;28;20508;-88
2022/08/27 00:07:19;;;;;;;26.95;8.93;;;19.10;76.90;;;;;;4152531;28;20030;-89
2022/08/27 00:09:20;;;;;;;28.02;9.23;;;19.20;77.00;;;;;;4148348;28;21376;-89
2022/08/27 00:11:24;;;;;;;26.88;8.40;;;19.10;77.10;;;;;;4169466;28;20036;-87
2022/08/27 00:13:24;;;;;;;23.80;8.68;;;19.10;77.10;;;;;;4166651;28;20033;-89
2022/08/27 00:15:26;;;;;;;20.05;7.80;;;19.10;77.10;;;;;;4164027;28;20132;-89
2022/08/27 00:17:28;;;;;;;23.00;7.85;;;19.10;77.20;;;;;;4137234;28;20109;-88
2022/08/27 00:19:28;;;;;;;27.52;9.20;;;19.00;77.20;;;;;;4167155;28;20453;-88
2022/08/27 00:21:31;;;;;;;28.58;9.15;;;19.00;77.30;;;;;;4160229;28;20052;-89
2022/08/27 00:23:33;;;;;;;27.70;8.93;;;19.10;77.40;;;;;;4149314;28;20048;-89
2022/08/27 00:25:34;;;;;;;29.33;8.82;;;19.00;77.40;;;;;;4165880;28;20035;-88
2022/08/27 00:27:35;;;;;;;28.08;8.77;;;19.00;77.40;;;;;;4162751;28;20047;-88
2022/08/27 00:29:36;;;;;;;33.85;8.60;;;19.00;77.50;;;;;;4165515;28;20032;-86
2022/08/27 00:31:37;;;;;;;26.73;8.27;;;19.00;77.50;;;;;;4150165;28;20033;-87
2022/08/27 00:33:37;;;;;;;31.00;9.35;;;18.90;77.50;;;;;;4151050;28;20060;-88
2022/08/27 00:35:38;;;;;;;28.67;8.50;;;18.90;77.50;;;;;;4147007;28;20033;-89
2022/08/27 00:37:39;;;;;;;22.90;7.72;;;18.90;77.40;;;;;;4153991;28;20017;-87
2022/08/27 00:39:40;;;;;;;21.30;7.65;;;18.90;77.40;;;;;;4143027;28;20025;-89
2022/08/27 00:41:42;;;;;;;25.70;8.10;;;18.90;77.40;;;;;;4165122;28;20060;-88
2022/08/27 00:43:52;;;;;;;17.33;7.15;;;18.90;77.40;;;;;;4167973;28;20075;-87
2022/08/27 00:46:01;;;;;;;15.52;6.90;;;18.90;77.50;;;;;;4149339;28;20057;-88
2022/08/27 00:48:06;;;;;;;16.08;6.63;;;18.90;77.50;;;;;;4159356;28;20024;-87
2022/08/27 00:50:12;;;;;;;20.60;7.07;;;18.80;77.40;;;;;;4161493;28;20662;-87
2022/08/27 00:52:30;;;;;;;18.98;6.82;;;18.80;77.40;;;;;;4161935;28;20481;-87
2022/08/27 00:54:32;;;;;;;16.55;6.55;;;18.80;77.40;;;;;;4148759;28;20397;-87
2022/08/27 00:56:38;;;;;;;13.25;6.32;;;18.80;77.40;;;;;;4165988;28;20029;-88
2022/08/27 00:58:42;;;;;;;18.05;7.13;;;18.80;77.40;;;;;;4151945;28;20064;-88
2022/08/27 01:00:45;;;;;;;15.48;6.03;;;18.80;77.40;;;;;;4136919;28;20022;-88
2022/08/27 01:02:46;;;;;;;21.40;6.20;;;18.70;77.30;;;;;;4151875;28;20079;-87
2022/08/27 01:05:00;;;;;;;17.35;7.00;;;18.70;77.30;;;;;;4166316;28;20029;-88
2022/08/27 01:07:01;;;;;;;13.77;5.95;;;18.70;77.40;;;;;;4165981;28;20574;-88
2022/08/27 01:09:10;;;;;;;16.38;6.15;;;18.70;78.10;;;;;;4153774;28;20162;-89
2022/08/27 01:11:11;;;;;;;22.73;6.25;;;18.60;77.30;;;;;;4166696;28;20029;-88
2022/08/27 01:13:16;;;;;;;21.67;5.75;;;18.60;77.20;;;;;;4169192;28;20053;-88
2022/08/27 01:15:18;;;;;;;13.60;5.82;;;18.60;77.30;;;;;;4142607;28;20057;-88
2022/08/27 01:17:19;;;;;;;16.30;6.30;;;18.60;77.40;;;;;;4166302;28;20037;-87
2022/08/27 01:19:32;;;;;;;16.40;5.90;;;18.60;77.40;;;;;;4168128;28;20036;-88
2022/08/27 01:21:41;;;;;;;18.60;5.57;;;18.50;77.30;;;;;;4181667;28;20033;-88
2022/08/27 01:24:01;;;;;;;16.50;5.95;;;18.50;77.50;;;;;;4153547;28;20049;-88
2022/08/27 01:26:07;;;;;;;15.50;5.20;;;18.50;77.50;;;;;;4161916;28;20058;-88
2022/08/27 01:28:09;;;;;;;15.13;5.30;;;18.50;77.50;;;;;;4150669;28;20025;-87
2022/08/27 01:30:12;;;;;;;16.52;5.55;;;18.50;77.50;;;;;;4149389;28;20136;-87
2022/08/27 01:32:15;;;;;;;13.05;5.13;;;18.40;77.50;;;;;;4136769;28;20030;-88
2022/08/27 01:34:15;;;;;;;17.52;6.25;;;18.40;77.50;;;;;;4164372;28;20037;-88
2022/08/27 01:36:16;;;;;;;19.52;5.72;;;18.40;77.60;;;;;;4161371;28;20495;-87
2022/08/27 01:38:18;;;;;;;17.63;4.78;;;18.40;77.60;;;;;;4180927;28;20025;-89
2022/08/27 01:40:19;;;;;;;17.17;5.28;;;18.40;77.50;;;;;;4152623;28;20025;-86
2022/08/27 01:42:22;;;;;;;14.38;4.70;;;18.40;77.50;;;;;;4172447;28;20136;-87
2022/08/27 01:44:23;;;;;;;16.55;6.07;;;18.40;77.50;;;;;;4168816;28;20063;-88
2022/08/27 01:46:26;;;;;;;13.95;4.97;;;18.40;77.50;;;;;;4151952;28;20117;-88
2022/08/27 01:48:27;;;;;;;14.30;4.88;;;18.40;77.40;;;;;;4166502;28;20033;-89
2022/08/27 01:50:34;;;;;;;17.35;5.20;;;18.30;77.40;;;;;;4151979;28;20037;-88
2022/08/27 01:52:35;;;;;;;15.25;5.00;;;18.30;77.40;;;;;;4170466;28;20104;-88
2022/08/27 01:54:36;;;;;;;16.30;4.78;;;18.30;77.40;;;;;;4186973;28;20031;-88
2022/08/27 01:56:37;;;;;;;17.48;5.57;;;18.30;77.30;;;;;;4156410;28;20551;-88
2022/08/27 01:58:38;;;;;;;15.82;5.30;;;18.30;77.30;;;;;;4167873;28;20393;-88
2022/08/27 02:00:43;;;;;;;13.38;4.93;;;18.30;78.00;;;;;;4165545;28;20147;-88
2022/08/27 02:02:44;;;;;;;16.73;5.47;;;18.30;77.30;;;;;;4166778;28;20030;-88
2022/08/27 02:04:45;;;;;;;17.23;4.95;;;18.30;77.30;;;;;;4178377;28;20028;-89
2022/08/27 02:06:46;;;;;;;16.52;5.35;;;18.20;77.20;;;;;;4155089;28;20025;-88
2022/08/27 02:08:47;;;;;;;11.85;4.78;;;18.20;77.20;;;;;;4148400;28;20077;-89
2022/08/27 02:10:48;;;;;;;13.80;5.28;;;18.20;77.30;;;;;;4169923;28;20035;-89
2022/08/27 02:12:49;;;;;;;17.88;4.97;;;18.20;77.30;;;;;;4152406;28;20116;-89
2022/08/27 02:14:51;;;;;;;14.32;5.70;;;18.20;77.30;;;;;;4157804;28;20045;-89
2022/08/27 02:16:52;;;;;;;15.90;5.60;;;18.20;77.30;;;;;;4173866;28;20029;-88
2022/08/27 02:18:53;;;;;;;14.80;5.10;;;18.20;77.30;;;;;;4136312;28;20586;-88
2022/08/27 02:20:54;;;;;;;17.38;5.57;;;18.20;77.20;;;;;;4151235;28;20026;-87
2022/08/27 02:22:54;;;;;;;12.60;5.00;;;18.20;77.20;;;;;;4169472;28;20025;-87
2022/08/27 02:24:55;;;;;;;14.15;4.80;;;18.10;77.00;;;;;;4167652;28;20029;-86
2022/08/27 02:26:56;;;;;;;16.13;5.30;;;18.10;77.00;;;;;;4157691;28;20667;-86
2022/08/27 02:28:57;;;;;;;7.82;4.13;;;18.20;77.10;;;;;;4167140;28;20109;-87
2022/08/27 02:30:58;;;;;;;13.45;4.47;;;18.10;76.90;;;;;;4182808;28;20718;-86
2022/08/27 02:33:03;;;;;;;10.73;4.30;;;18.10;76.90;;;;;;4175926;28;20025;-87
2022/08/27 02:35:05;;;;;;;9.75;4.30;;;18.10;76.80;;;;;;4173875;28;20037;-88
2022/08/27 02:37:06;;;;;;;10.13;3.90;;;18.10;76.60;;;;;;4171711;28;20033;-88
2022/08/27 02:39:07;;;;;;;9.45;4.25;;;18.10;76.60;;;;;;4152579;28;20116;-87
2022/08/27 02:41:07;;;;;;;10.02;3.92;;;18.00;76.60;;;;;;4152825;28;20109;-88
2022/08/27 02:43:08;;;;;;;9.02;3.90;;;18.00;76.50;;;;;;4155682;28;20033;-88
2022/08/27 02:45:09;;;;;;;6.65;3.45;;;18.00;76.50;;;;;;4159372;28;20022;-89
2022/08/27 02:47:11;;;;;;;9.57;4.47;;;18.00;76.50;;;;;;4170125;28;20037;-88
2022/08/27 02:49:11;;;;;;;7.03;3.67;;;18.00;76.50;;;;;;4166578;28;20025;-88
2022/08/27 02:51:12;;;;;;;16.23;4.25;;;18.00;76.50;;;;;;4168449;28;20752;-88
2022/08/27 02:53:13;;;;;;;15.00;4.93;;;17.90;76.60;;;;;;4152124;28;20083;-88
2022/08/27 02:55:14;;;;;;;12.85;4.68;;;17.90;76.50;;;;;;4169949;28;20037;-87
2022/08/27 02:57:14;;;;;;;13.32;4.53;;;17.90;76.40;;;;;;4144287;28;20073;-88
2022/08/27 02:59:16;;;;;;;13.68;4.43;;;17.90;76.20;;;;;;4157832;28;20730;-87
2022/08/27 03:01:16;;;;;;;21.55;5.07;;;17.90;76.30;;;;;;4162927;28;20059;-87
2022/08/27 03:03:17;;;;;;;16.15;4.35;;;17.90;76.40;;;;;;4165690;28;20145;-87
2022/08/27 03:05:18;;;;;;;15.43;4.53;;;17.80;76.20;;;;;;4137260;28;20076;-87
2022/08/27 03:07:22;;;;;;;20.77;4.95;;;17.80;76.20;;;;;;4153458;28;20900;-87
2022/08/27 03:09:22;;;;;;;19.25;3.90;;;17.80;76.00;;;;;;4170701;28;20606;-87
2022/08/27 03:11:23;;;;;;;15.57;3.95;;;17.80;76.00;;;;;;4151058;28;20033;-87
2022/08/27 03:13:25;;;;;;;13.80;3.67;;;17.70;75.90;;;;;;4138690;28;20022;-87
2022/08/27 03:15:25;;;;;;;13.60;3.83;;;17.70;75.80;;;;;;4147412;28;20037;-88
2022/08/27 03:19:46;;;;;;;13.68;3.80;;;17.70;75.90;;;;;;4163523;28;20080;-90
2022/08/27 03:21:47;;;;;;;15.05;3.65;;;17.60;75.80;;;;;;4168090;28;20046;-88
2022/08/27 03:23:48;;;;;;;13.55;3.70;;;17.60;75.80;;;;;;4155529;28;20439;-87
2022/08/27 03:25:51;;;;;;;14.13;3.17;;;17.60;75.90;;;;;;4167462;28;20029;-88
2022/08/27 03:27:52;;;;;;;11.25;3.38;;;17.50;75.90;;;;;;4166793;28;20373;-87
2022/08/27 03:29:53;;;;;;;15.82;3.85;;;17.50;76.00;;;;;;4171416;28;20025;-87
2022/08/27 03:31:53;;;;;;;16.40;3.40;;;17.50;76.00;;;;;;4164809;28;20040;-89
2022/08/27 03:34:06;;;;;;;15.02;3.50;;;17.50;76.00;;;;;;4166692;28;20083;-89
2022/08/27 03:36:08;;;;;;;15.30;3.25;;;17.50;76.10;;;;;;4153601;28;20064;-88
2022/08/27 03:38:08;;;;;;;12.35;3.33;;;17.40;76.00;;;;;;4167977;28;20120;-88
2022/08/27 03:40:10;;;;;;;11.18;3.00;;;17.40;75.90;;;;;;4167389;28;20036;-88
2022/08/27 03:42:11;;;;;;;9.57;2.95;;;17.40;76.00;;;;;;4152387;28;20025;-86
2022/08/27 03:44:11;;;;;;;8.73;2.90;;;17.40;76.00;;;;;;4136729;28;20359;-87
2022/08/27 03:46:13;;;;;;;9.20;2.83;;;17.40;75.80;;;;;;4165013;28;20025;-88
2022/08/27 03:48:14;;;;;;;11.40;3.13;;;17.40;75.70;;;;;;4139083;28;20046;-87
2022/08/27 03:50:14;;;;;;;7.18;2.90;;;17.40;75.70;;;;;;4167451;28;20029;-86
2022/08/27 03:52:15;;;;;;;9.45;3.45;;;17.30;75.70;;;;;;4166139;28;20037;-87
2022/08/27 03:54:16;;;;;;;12.40;3.25;;;17.30;75.70;;;;;;4152105;28;20037;-86
2022/08/27 03:56:17;;;;;;;15.07;3.60;;;17.30;75.80;;;;;;4145777;28;20683;-87
2022/08/27 03:58:18;;;;;;;15.18;3.78;;;17.30;75.80;;;;;;4149507;28;20058;-87
2022/08/27 04:00:18;;;;;;;13.85;3.13;;;17.30;75.80;;;;;;4163432;28;20029;-87
2022/08/27 04:02:19;;;;;;;19.15;3.55;;;17.30;75.80;;;;;;4163101;28;20400;-86
2022/08/27 04:04:20;;;;;;;22.33;4.32;;;17.30;75.80;;;;;;4164754;28;20029;-86
2022/08/27 04:06:21;;;;;;;20.42;3.90;;;17.30;75.80;;;;;;4159607;28;20106;-86
2022/08/27 04:08:23;;;;;;;18.77;3.72;;;17.30;75.80;;;;;;4166433;28;20288;-86
2022/08/27 04:10:24;;;;;;;18.98;3.47;;;17.30;75.80;;;;;;4165386;28;20021;-87
2022/08/27 04:12:25;;;;;;;14.88;3.50;;;17.20;75.70;;;;;;4150622;28;20029;-87
2022/08/27 04:14:26;;;;;;;16.73;3.17;;;17.20;75.80;;;;;;4149066;28;20029;-87
2022/08/27 04:16:27;;;;;;;19.55;4.35;;;17.20;75.80;;;;;;4161609;28;20025;-87
2022/08/27 04:18:27;;;;;;;15.63;3.40;;;17.20;75.80;;;;;;4163568;28;20033;-86
2022/08/27 04:20:28;;;;;;;16.83;3.35;;;17.20;75.80;;;;;;4158970;28;20039;-87
2022/08/27 04:22:29;;;;;;;17.48;3.58;;;17.20;75.80;;;;;;4163933;28;20485;-87
2022/08/27 04:24:31;;;;;;;17.95;3.63;;;17.20;75.80;;;;;;4164000;28;20029;-86
2022/08/27 04:26:32;;;;;;;18.45;3.08;;;17.20;75.70;;;;;;4163498;28;20507;-86
2022/08/27 04:28:33;;;;;;;16.67;3.45;;;17.10;75.60;;;;;;4136210;28;20037;-87
2022/08/27 04:30:38;;;;;;;13.32;2.80;;;17.10;75.70;;;;;;4166182;28;20385;-86
2022/08/27 04:32:39;;;;;;;14.38;3.40;;;17.10;75.70;;;;;;4163619;28;20146;-87
2022/08/27 04:34:40;;;;;;;12.75;2.90;;;17.10;75.80;;;;;;4134371;28;20160;-87
2022/08/27 04:36:41;;;;;;;15.48;3.17;;;17.10;75.80;;;;;;4163113;28;20036;-86
2022/08/27 04:38:41;;;;;;;10.68;3.40;;;17.10;75.70;;;;;;4146891;28;20029;-86
2022/08/27 04:43:01;;;;;;;11.57;2.90;;;17.00;75.70;;;;;;4160333;28;20021;-88
2022/08/27 04:45:03;;;;;;;11.27;3.22;;;17.00;75.60;;;;;;4168702;28;20040;-87
2022/08/27 04:47:05;;;;;;;10.55;2.45;;;17.00;75.50;;;;;;4146624;28;20048;-87
2022/08/27 04:49:09;;;;;;;14.85;3.28;;;17.00;75.40;;;;;;4161906;28;20393;-88
2022/08/27 04:51:09;;;;;;;9.10;2.40;;;17.00;75.40;;;;;;4163113;28;20531;-87
2022/08/27 04:53:12;;;;;;;13.70;2.78;;;17.00;75.40;;;;;;4166041;28;20068;-88
2022/08/27 04:55:13;;;;;;;10.75;2.10;;;17.00;75.40;;;;;;4180142;28;20989;-88
2022/08/27 04:57:14;;;;;;;13.77;2.75;;;16.90;75.10;;;;;;4160935;28;20033;-87
2022/08/27 04:59:15;;;;;;;9.45;2.53;;;16.90;75.10;;;;;;4164382;28;20041;-87
2022/08/27 05:01:22;;;;;;;7.70;2.35;;;16.90;75.00;;;;;;4153934;28;20496;-87
2022/08/27 05:03:23;;;;;;;15.30;2.67;;;16.90;74.70;;;;;;4165427;28;20030;-87
2022/08/27 05:05:27;;;;;;;12.73;2.60;;;16.90;74.80;;;;;;4165531;28;20025;-88
2022/08/27 05:07:28;;;;;;;12.32;2.58;;;16.90;74.50;;;;;;4147935;28;20029;-88
2022/08/27 05:09:28;;;;;;;12.35;2.38;;;16.90;74.40;;;;;;4152640;28;20025;-87
2022/08/27 05:11:33;;;;;;;12.00;2.40;;;16.90;74.30;;;;;;4168929;28;20025;-85
2022/08/27 05:13:34;;;;;;;17.55;2.97;;;16.90;74.30;;;;;;4163345;28;20169;-86
2022/08/27 05:15:36;;;;;;;23.15;2.53;;;16.80;74.90;;;;;;4150289;28;20052;-86
2022/08/27 05:17:36;;;;;;;13.43;2.08;;;16.80;74.10;;;;;;4167698;28;20030;-85
2022/08/27 05:19:37;;;;;;;14.68;1.95;;;16.80;74.00;;;;;;4170731;28;20108;-85
2022/08/27 05:21:44;;;;;;;9.77;2.30;;;16.80;74.00;;;;;;4169228;28;20545;-85
2022/08/27 05:23:44;;;;;;;9.15;1.88;;;16.80;74.00;;;;;;4170473;28;20028;-85
2022/08/27 05:25:50;;;;;;;9.60;2.15;;;16.80;74.10;;;;;;4156770;28;20096;-86
2022/08/27 05:27:51;;;;;;;6.50;1.80;;;16.80;74.20;;;;;;4140569;28;20030;-85
2022/08/27 05:29:51;;;;;;;13.48;2.83;;;16.80;74.30;;;;;;4171955;28;20021;-85
2022/08/27 05:31:53;;;;;;;17.45;2.80;;;16.80;74.40;;;;;;4167772;28;20072;-85
2022/08/27 05:33:55;;;;;;;20.33;2.92;;;16.80;74.40;;;;;;4147973;28;20108;-86
2022/08/27 05:35:58;;;;;;;13.15;2.58;;;16.80;74.40;;;;;;4153589;28;20025;-85
2022/08/27 05:37:59;;;;;;;10.88;2.42;;;16.80;74.40;;;;;;4158471;28;20059;-85
2022/08/27 05:40:00;;;;;;;16.42;2.92;;;16.80;74.40;;;;;;4167369;28;20021;-84
2022/08/27 05:42:01;;;;;;;15.90;2.80;;;16.80;74.50;;;;;;4143043;28;20117;-84
2022/08/27 05:44:05;;;;;;;19.52;2.95;;;16.80;74.40;;;;;;4168567;28;20394;-84
2022/08/27 05:46:09;;;;;;;15.82;2.75;;;16.80;74.40;;;;;;4167781;28;20374;-84
2022/08/27 05:48:10;;;;;;;18.25;2.38;;;16.80;74.40;;;;;;4138329;28;20053;-84
2022/08/27 05:50:11;;;;;;;9.85;2.70;;;16.80;74.30;;;;;;4171981;28;20497;-83
2022/08/27 05:52:12;;;;;;;16.10;2.80;;;16.80;74.30;;;;;;4154141;28;20042;-84
2022/08/27 05:54:18;;;;;;;8.18;2.33;;;16.80;74.30;;;;;;4170870;28;20059;-84
2022/08/27 05:56:22;;;;;;;16.08;2.17;;;16.80;74.30;;;;;;4167957;28;20033;-84
2022/08/27 06:03:01;;;;;;;13.35;2.08;;;16.80;73.80;;;;;;4164785;28;20568;-83
2022/08/27 06:05:03;;;;;;;9.20;1.88;;;16.80;73.70;;;;;;4154728;28;20153;-83
2022/08/27 06:07:05;;;;;;;9.82;2.20;;;16.70;73.60;;;;;;4155096;28;20024;-84
2022/08/27 06:09:07;;;;;;;11.25;2.20;;;16.70;73.50;;;;;;4154457;28;20051;-84
2022/08/27 06:11:09;;;;;;;10.02;2.60;;;16.70;73.60;;;;;;4168307;28;20086;-83
2022/08/27 06:13:09;;;;;;;8.90;1.85;;;16.70;73.50;;;;;;4161464;28;20171;-84
2022/08/27 06:15:10;;;;;;;11.45;2.55;;;16.70;73.50;;;;;;4161700;28;20931;-84
2022/08/27 06:17:11;;;;;;;9.85;2.30;;;16.70;73.50;;;;;;4167455;28;20080;-83
2022/08/27 06:19:12;;;;;;;10.68;2.30;;;16.70;73.50;;;;;;4166568;28;20029;-84
2022/08/27 06:21:15;;;;;;;7.43;1.98;;;16.70;73.50;;;;;;4162097;28;20079;-84
2022/08/27 06:23:16;;;;;;;8.73;2.05;;;16.70;73.30;;;;;;4161368;28;20238;-84
2022/08/27 06:25:17;;;;;;;14.50;2.50;;;16.70;73.10;;;;;;4159880;28;20076;-83
2022/08/27 06:27:18;;;;;;;10.15;2.28;;;16.70;72.90;;;;;;4166236;28;20025;-84
2022/08/27 06:29:20;;;;;;;7.13;1.73;;;16.70;72.70;;;;;;4161493;28;20518;-84
2022/08/27 06:31:26;;;;;;;10.07;2.13;;;16.70;72.70;;;;;;4174868;28;20041;-84
2022/08/27 06:33:26;;;;;;;8.70;2.38;;;16.80;72.70;;;;;;4168301;28;20055;-84
2022/08/27 06:35:27;;;;;;;8.85;1.85;;;16.70;72.70;;;;;;4164656;28;20053;-84
2022/08/27 06:37:29;;;;;;;9.80;2.25;;;16.80;72.90;;;;;;4173209;28;20017;-84
2022/08/27 06:39:31;;;;;;;10.73;2.13;;;16.80;73.70;;;;;;4173001;28;20772;-84
2022/08/27 06:41:33;;;;;;;16.60;2.35;;;16.80;72.60;;;;;;4157655;28;20044;-83
2022/08/27 06:43:36;;;;;;;14.98;2.17;;;16.80;72.50;;;;;;4167263;28;20125;-83
2022/08/27 06:45:38;;;;;;;10.10;2.83;;;16.80;72.20;;;;;;4185604;28;20021;-84
2022/08/27 06:47:39;;;;;;;13.77;2.30;;;16.80;72.20;;;;;;4166913;28;20026;-83
2022/08/27 06:49:40;;;;;;;10.63;2.60;;;16.80;72.10;;;;;;4166092;28;20068;-82
2022/08/27 06:51:44;;;;;;;11.45;2.33;;;16.80;71.90;;;;;;4149551;28;20116;-83
2022/08/27 06:53:46;;;;;;;17.52;2.55;;;16.80;71.90;;;;;;4167456;28;20036;-83
2022/08/27 06:55:48;;;;;;;16.98;2.78;;;16.80;71.80;;;;;;4167515;28;20957;-83
2022/08/27 06:57:49;;;;;;;8.02;2.00;;;16.80;71.80;;;;;;4171577;28;20056;-83
2022/08/27 06:59:50;;;;;;;14.00;2.55;;;16.80;71.70;;;;;;4180973;28;20028;-83
2022/08/27 07:01:51;;;;;;;16.63;2.10;;;16.90;71.70;;;;;;4165988;28;20025;-83
2022/08/27 07:03:57;;;;;;;21.27;2.38;;;16.80;71.50;;;;;;4162144;28;20040;-83
2022/08/27 07:06:04;;;;;;;20.08;2.67;;;16.80;71.40;;;;;;4166427;28;20036;-82
2022/08/27 07:08:07;;;;;;;14.68;1.88;;;16.80;71.40;;;;;;4165903;28;20467;-83
2022/08/27 07:10:08;;;;;;;21.95;2.05;;;16.80;71.50;;;;;;4163975;28;20026;-83
2022/08/27 07:12:08;;;;;;;11.10;2.17;;;16.90;71.50;;;;;;4166088;28;20054;-84
2022/08/27 07:14:09;;;;;;;14.65;2.45;;;16.90;71.40;;;;;;4164159;28;20108;-84
2022/08/27 07:16:13;;;;;;;13.82;1.92;;;16.90;70.90;;;;;;4162817;28;20047;-84
2022/08/27 07:18:14;;;;;;;14.27;1.60;;;17.00;70.60;;;;;;4162725;28;20056;-83
2022/08/27 07:20:16;;;;;;;10.25;1.80;;;17.00;70.30;;;;;;4167705;28;20087;-84
2022/08/27 07:22:17;;;;;;;16.20;2.07;;;17.00;70.20;;;;;;4169774;28;20114;-84
2022/08/27 07:24:18;;;;;;;11.07;2.15;;;17.10;69.50;;;;;;4164549;28;20089;-84
2022/08/27 07:26:20;;;;;;;14.45;2.08;;;17.10;69.20;;;;;;4157041;28;20036;-84
2022/08/27 07:28:21;;;;;;;19.15;2.25;;;17.10;69.20;;;;;;4153458;28;20236;-83
2022/08/27 07:30:22;;;;;;;13.70;1.77;;;17.20;69.20;;;;;;4169071;28;20033;-83
2022/08/27 07:32:23;;;;;;;15.95;2.10;;;17.20;68.80;;;;;;4162686;28;20697;-83
2022/08/27 07:34:24;;;;;;;13.23;2.33;;;17.20;68.50;;;;;;4153297;28;20119;-83
2022/08/27 07:36:24;;;;;;;14.88;2.35;;;17.20;68.20;;;;;;4154119;28;20525;-84
2022/08/27 07:38:26;;;;;;;13.48;2.17;;;17.30;68.10;;;;;;4149540;28;20025;-83
2022/08/27 07:40:26;;;;;;;8.85;2.20;;;17.30;67.80;;;;;;4147640;28;20033;-84
2022/08/27 07:44:48;;;;;;;11.93;2.15;;;17.40;67.60;;;;;;4166964;28;20032;-84
2022/08/27 07:46:49;;;;;;;10.15;1.80;;;17.40;67.70;;;;;;4153554;28;20029;-86
2022/08/27 07:48:51;;;;;;;14.57;2.05;;;17.40;67.90;;;;;;4159974;28;20057;-86
2022/08/27 07:50:52;;;;;;;13.55;2.50;;;17.50;67.80;;;;;;4160436;28;20029;-86
2022/08/27 07:52:53;;;;;;;14.77;2.20;;;17.60;67.50;;;;;;4166973;28;20029;-85
2022/08/27 07:54:54;;;;;;;16.80;2.50;;;17.60;67.10;;;;;;4165687;28;20032;-84
2022/08/27 07:56:55;;;;;;;15.85;2.83;;;17.60;66.70;;;;;;4164275;28;20044;-86
2022/08/27 07:58:55;;;;;;;12.68;2.20;;;17.60;66.60;;;;;;4147374;28;21363;-86
2022/08/27 08:00:56;;;;;;;13.85;2.30;;;17.70;66.30;;;;;;4162296;28;20048;-85
2022/08/27 08:02:58;;;;;;;12.05;1.90;;;17.70;65.90;;;;;;4143453;28;20018;-85
2022/08/27 08:04:59;;;;;;;11.63;2.05;;;17.80;65.50;;;;;;4142437;28;20033;-85
2022/08/27 08:07:00;;;;;;;9.77;1.75;;;17.80;65.30;;;;;;4149904;28;20098;-85
2022/08/27 08:09:00;;;;;;;12.38;1.75;;;17.80;65.10;;;;;;4128682;28;20406;-85
2022/08/27 08:11:02;;;;;;;11.02;1.90;;;17.90;65.30;;;;;;4162605;28;20033;-85
2022/08/27 08:13:04;;;;;;;13.27;2.55;;;17.90;65.10;;;;;;4153743;28;20108;-86
2022/08/27 08:15:08;;;;;;;13.38;2.08;;;18.00;64.80;;;;;;4164148;28;20496;-85
2022/08/27 08:17:09;;;;;;;12.38;1.85;;;18.00;64.60;;;;;;4142690;28;20033;-85
2022/08/27 08:19:10;;;;;;;10.35;1.80;;;18.00;64.60;;;;;;4160236;28;20084;-84
2022/08/27 08:21:12;;;;;;;13.32;2.03;;;18.10;64.50;;;;;;4160520;28;20697;-84
2022/08/27 08:23:13;;;;;;;11.90;1.73;;;18.10;64.10;;;;;;4157682;28;20029;-85
2022/08/27 08:25:15;;;;;;;15.70;1.88;;;18.20;63.70;;;;;;4154306;28;20112;-85
2022/08/27 08:27:16;;;;;;;13.13;2.40;;;18.20;63.40;;;;;;4144793;28;20489;-87
2022/08/27 08:29:17;;;;;;;11.27;2.05;;;18.20;63.10;;;;;;4162682;28;20040;-84
2022/08/27 08:31:18;;;;;;;14.88;2.17;;;18.30;63.30;;;;;;4162596;28;20033;-87
2022/08/27 08:33:19;;;;;;;12.73;2.08;;;18.30;63.30;;;;;;4165742;28;20032;-87
2022/08/27 08:35:20;;;;;;;11.60;2.35;;;18.40;63.30;;;;;;4164017;28;20033;-88
2022/08/27 08:37:21;;;;;;;14.55;2.20;;;18.40;63.10;;;;;;4162605;28;20812;-84
2022/08/27 08:39:23;;;;;;;9.18;1.70;;;18.50;62.80;;;;;;4165091;28;20411;-85
2022/08/27 08:41:26;;;;;;;11.93;1.90;;;18.60;62.40;;;;;;4161682;28;20964;-84
2022/08/27 08:43:30;;;;;;;8.95;2.00;;;18.60;62.60;;;;;;4166575;28;20041;-87
2022/08/27 08:45:34;;;;;;;19.73;2.08;;;18.60;62.30;;;;;;4164305;28;20037;-87
2022/08/27 08:47:43;;;;;;;7.22;1.65;;;18.70;61.90;;;;;;4145650;28;20028;-87
2022/08/27 08:50:02;;;;;;;10.77;2.30;;;18.70;61.40;;;;;;4151195;28;20333;-88
2022/08/27 08:52:26;;;;;;;12.98;2.00;;;18.80;60.70;;;;;;4133221;28;20041;-87
2022/08/27 08:54:31;;;;;;;16.33;2.53;;;18.80;60.00;;;;;;4168892;28;20029;-87
2022/08/27 08:56:58;;;;;;;13.32;2.13;;;18.90;60.60;;;;;;4153010;28;20030;-87
2022/08/27 08:59:07;;;;;;;15.63;1.67;;;18.90;59.70;;;;;;4148217;28;20037;-87
2022/08/27 09:01:09;;;;;;;18.08;2.63;;;19.00;60.50;;;;;;4135565;28;20083;-85
2022/08/27 09:03:15;;;;;;;9.70;1.50;;;19.00;59.80;;;;;;4151794;28;20026;-84
2022/08/27 09:05:15;;;;;;;11.88;2.22;;;19.10;59.60;;;;;;4166183;28;20230;-84
2022/08/27 09:07:29;;;;;;;11.95;1.90;;;19.10;59.40;;;;;;4162328;28;20033;-84
2022/08/27 09:09:59;;;;;;;11.98;2.28;;;19.10;59.20;;;;;;4150930;28;20032;-84
2022/08/27 09:12:14;;;;;;;11.52;2.33;;;19.20;59.50;;;;;;4146719;28;20088;-87
2022/08/27 09:14:41;;;;;;;12.52;2.05;;;19.20;59.20;;;;;;4154533;28;20030;-85
2022/08/27 09:16:42;;;;;;;11.80;1.77;;;19.20;58.90;;;;;;4151097;28;20088;-87
2022/08/27 09:18:44;;;;;;;12.02;2.25;;;19.30;58.60;;;;;;4168148;28;20560;-88
2022/08/27 09:20:50;;;;;;;11.40;1.73;;;19.30;59.00;;;;;;4152558;28;20069;-87
2022/08/27 09:23:03;;;;;;;10.00;2.05;;;19.40;59.10;;;;;;4148439;28;20033;-87
2022/08/27 09:25:12;;;;;;;6.30;1.23;;;19.40;58.60;;;;;;4170938;28;20532;-87
2022/08/27 09:27:14;;;;;;;14.57;2.15;;;19.40;58.40;;;;;;4169503;28;20145;-87
2022/08/27 09:29:19;;;;;;;12.88;1.95;;;19.50;58.70;;;;;;4150269;28;20513;-87
2022/08/27 09:31:20;;;;;;;12.02;1.52;;;19.60;58.30;;;;;;4151936;28;20038;-84
2022/08/27 09:33:21;;;;;;;16.02;1.70;;;19.60;58.90;;;;;;4184253;28;20102;-85
2022/08/27 09:35:25;;;;;;;17.90;2.30;;;19.60;58.10;;;;;;4151401;28;20832;-85
2022/08/27 09:37:31;;;;;;;8.75;1.80;;;19.70;58.10;;;;;;4154498;28;20034;-85
2022/08/27 09:39:47;;;;;;;10.73;1.83;;;19.70;57.30;;;;;;4157026;28;20029;-85
2022/08/27 09:41:48;;;;;;;11.50;1.52;;;19.70;57.10;;;;;;4168903;28;20130;-85
2022/08/27 09:44:07;;;;;;;15.18;2.28;;;19.80;57.30;;;;;;4150757;28;20074;-85
2022/08/27 09:46:24;;;;;;;13.35;1.77;;;19.80;57.30;;;;;;4166929;28;21065;-85
2022/08/27 09:48:28;;;;;;;15.57;2.40;;;19.80;56.90;;;;;;4171370;28;20019;-85
2022/08/27 09:50:40;;;;;;;10.20;1.60;;;19.90;56.90;;;;;;4151113;28;20048;-85
2022/08/27 09:52:54;;;;;;;7.00;1.88;;;19.90;56.90;;;;;;4135030;28;20045;-86
2022/08/27 09:54:55;;;;;;;8.63;1.90;;;19.90;56.80;;;;;;4167515;28;20205;-86
2022/08/27 09:56:57;;;;;;;9.60;1.80;;;19.90;56.90;;;;;;4149947;28;20099;-86
2022/08/27 09:59:04;;;;;;;12.57;2.30;;;20.00;56.60;;;;;;4151292;28;20036;-84
2022/08/27 10:01:21;;;;;;;11.32;1.90;;;20.00;56.30;;;;;;4171219;28;20044;-85
2022/08/27 10:03:22;;;;;;;8.05;1.80;;;20.10;56.10;;;;;;4168565;28;20044;-85
2022/08/27 10:05:42;;;;;;;11.95;1.80;;;20.10;56.20;;;;;;4169979;28;20156;-86
2022/08/27 10:07:52;;;;;;;12.48;2.28;;;20.20;56.00;;;;;;4155303;28;20053;-83
2022/08/27 10:10:16;;;;;;;13.35;2.47;;;20.20;55.80;;;;;;4168383;28;20430;-83
2022/08/27 10:12:32;;;;;;;11.25;1.50;;;20.20;55.80;;;;;;4123214;28;20859;-82
2022/08/27 10:14:53;;;;;;;11.20;2.05;;;20.30;56.00;;;;;;4157505;28;20404;-83
2022/08/27 10:17:20;;;;;;;14.57;1.80;;;20.30;55.50;;;;;;4160808;28;20033;-82
2022/08/27 10:19:32;;;;;;;13.23;2.15;;;20.40;54.80;;;;;;4157208;28;20143;-83
2022/08/27 10:21:48;;;;;;;6.82;1.88;;;20.40;55.10;;;;;;4164981;28;20285;-83
2022/08/27 10:23:58;;;;;;;8.55;2.15;;;20.40;55.00;;;;;;4159561;28;20417;-83
2022/08/27 10:26:16;;;;;;;9.20;1.90;;;20.40;54.90;;;;;;4166102;28;20086;-85
2022/08/27 10:28:25;;;;;;;8.85;1.80;;;20.50;54.60;;;;;;4162589;28;20074;-83
2022/08/27 10:31:04;;;;;;;14.20;1.88;;;20.50;54.70;;;;;;4160021;28;20033;-82
2022/08/27 10:33:22;;;;;;;10.20;1.98;;;20.50;54.20;;;;;;4140871;28;20057;-82
2022/08/27 10:35:46;;;;;;;7.07;1.70;;;20.60;54.30;;;;;;4149342;28;20116;-83
2022/08/27 10:37:51;;;;;;;11.40;1.85;;;20.60;54.60;;;;;;4161768;28;20034;-82
2022/08/27 10:40:07;;;;;;;11.13;1.90;;;20.70;54.80;;;;;;4152143;28;20458;-83
2022/08/27 10:42:25;;;;;;;6.90;1.60;;;20.70;54.10;;;;;;4166604;28;20040;-83
2022/08/27 10:44:53;;;;;;;10.18;1.85;;;20.70;53.60;;;;;;4154456;28;20037;-83
2022/08/27 10:47:14;;;;;;;10.70;1.77;;;20.70;53.40;;;;;;4164061;28;20712;-83
2022/08/27 10:49:21;;;;;;;10.32;1.52;;;20.70;53.80;;;;;;4180213;28;20463;-83